Zinder, Niger
Current Conditions -  °F | °C
As of 7:00 PM on Friday 21 Nov 2014 (Local Time) from DRZA Reporting Station
Clear Clear  
Wind Chill: 82°   Ceiling: Unl
Heat Index: 82°   Visibility: 6mi
Dew Point: 27°   Wind: 16mph
Humidity: 13%   Direction: 100°E
Pressure: 30"   Gusts: NA
Location:  13.8°N, 8.99°E
Report Text: DRZA 211800Z 10014KT CAVOK 28/M03 Q1016
Loading
Personal Weather Stations






























Interactive Weather Map New forecast layout! Learn more

10-Day Weather Forecast

Advertisements
Track Severe Weather on mobile